sensor_id;sensor_type;location;lat;lon;timestamp;P1;durP1;ratioP1;P2;durP2;ratioP2
30301;SDS011;17111;52.130;5.028;2023-02-28T00:00:53;21.35;;;13.13;;
30301;SDS011;17111;52.130;5.028;2023-02-28T00:03:19;23.25;;;14.18;;
30301;SDS011;17111;52.130;5.028;2023-02-28T00:05:46;22.85;;;12.80;;
30301;SDS011;17111;52.130;5.028;2023-02-28T00:08:12;22.40;;;13.10;;
30301;SDS011;17111;52.130;5.028;2023-02-28T00:10:39;20.45;;;12.63;;
30301;SDS011;17111;52.130;5.028;2023-02-28T00:13:06;19.77;;;12.43;;
30301;SDS011;17111;52.130;5.028;2023-02-28T00:15:32;21.33;;;13.18;;
30301;SDS011;17111;52.130;5.028;2023-02-28T00:17:59;20.58;;;11.80;;
30301;SDS011;17111;52.130;5.028;2023-02-28T00:20:26;20.90;;;11.95;;
30301;SDS011;17111;52.130;5.028;2023-02-28T00:22:53;19.08;;;12.07;;
30301;SDS011;17111;52.130;5.028;2023-02-28T00:25:21;22.80;;;12.32;;
30301;SDS011;17111;52.130;5.028;2023-02-28T00:27:49;23.38;;;12.20;;
30301;SDS011;17111;52.130;5.028;2023-02-28T00:30:17;20.30;;;11.70;;
30301;SDS011;17111;52.130;5.028;2023-02-28T00:32:45;17.45;;;11.07;;
30301;SDS011;17111;52.130;5.028;2023-02-28T00:35:12;17.45;;;10.82;;
30301;SDS011;17111;52.130;5.028;2023-02-28T00:37:39;19.00;;;11.45;;
30301;SDS011;17111;52.130;5.028;2023-02-28T00:40:06;18.52;;;11.55;;
30301;SDS011;17111;52.130;5.028;2023-02-28T00:42:34;18.27;;;10.40;;
30301;SDS011;17111;52.130;5.028;2023-02-28T00:45:01;18.42;;;11.02;;
30301;SDS011;17111;52.130;5.028;2023-02-28T00:47:30;16.08;;;9.95;;
30301;SDS011;17111;52.130;5.028;2023-02-28T00:49:57;17.77;;;10.32;;
30301;SDS011;17111;52.130;5.028;2023-02-28T00:52:24;16.42;;;9.93;;
30301;SDS011;17111;52.130;5.028;2023-02-28T00:54:51;16.55;;;9.88;;
30301;SDS011;17111;52.130;5.028;2023-02-28T00:57:17;16.65;;;10.55;;
30301;SDS011;17111;52.130;5.028;2023-02-28T00:59:44;16.58;;;10.10;;
30301;SDS011;17111;52.130;5.028;2023-02-28T01:02:10;16.60;;;9.85;;
30301;SDS011;17111;52.130;5.028;2023-02-28T01:04:37;15.75;;;9.48;;
30301;SDS011;17111;52.130;5.028;2023-02-28T01:07:03;15.85;;;9.77;;
30301;SDS011;17111;52.130;5.028;2023-02-28T01:09:30;14.35;;;8.60;;
30301;SDS011;17111;52.130;5.028;2023-02-28T01:11:57;14.40;;;8.60;;
30301;SDS011;17111;52.130;5.028;2023-02-28T01:14:23;14.20;;;8.85;;
30301;SDS011;17111;52.130;5.028;2023-02-28T01:16:50;15.95;;;9.43;;
30301;SDS011;17111;52.130;5.028;2023-02-28T01:19:17;13.48;;;8.85;;
30301;SDS011;17111;52.130;5.028;2023-02-28T01:21:44;12.88;;;8.18;;
30301;SDS011;17111;52.130;5.028;2023-02-28T01:24:11;12.88;;;8.45;;
30301;SDS011;17111;52.130;5.028;2023-02-28T01:26:37;12.98;;;8.27;;
30301;SDS011;17111;52.130;5.028;2023-02-28T01:29:04;15.30;;;9.00;;
30301;SDS011;17111;52.130;5.028;2023-02-28T01:31:30;13.52;;;7.65;;
30301;SDS011;17111;52.130;5.028;2023-02-28T01:33:57;14.77;;;8.30;;
30301;SDS011;17111;52.130;5.028;2023-02-28T01:36:24;13.90;;;7.95;;
30301;SDS011;17111;52.130;5.028;2023-02-28T01:38:51;14.15;;;8.23;;
30301;SDS011;17111;52.130;5.028;2023-02-28T01:41:20;12.98;;;8.05;;
30301;SDS011;17111;52.130;5.028;2023-02-28T01:46:15;13.13;;;8.15;;
30301;SDS011;17111;52.130;5.028;2023-02-28T01:48:43;12.57;;;7.97;;
30301;SDS011;17111;52.130;5.028;2023-02-28T01:51:18;13.20;;;8.00;;
30301;SDS011;17111;52.130;5.028;2023-02-28T01:53:51;11.93;;;7.05;;
30301;SDS011;17111;52.130;5.028;2023-02-28T01:56:23;12.68;;;7.10;;
30301;SDS011;17111;52.130;5.028;2023-02-28T01:58:54;12.68;;;6.90;;
30301;SDS011;17111;52.130;5.028;2023-02-28T02:01:21;12.60;;;7.00;;
30301;SDS011;17111;52.130;5.028;2023-02-28T02:03:52;12.15;;;6.95;;
30301;SDS011;17111;52.130;5.028;2023-02-28T02:06:22;11.60;;;6.97;;
30301;SDS011;17111;52.130;5.028;2023-02-28T02:08:50;10.43;;;6.78;;
30301;SDS011;17111;52.130;5.028;2023-02-28T02:11:18;11.55;;;6.45;;
30301;SDS011;17111;52.130;5.028;2023-02-28T02:18:54;10.55;;;6.75;;
30301;SDS011;17111;52.130;5.028;2023-02-28T02:21:47;11.93;;;6.55;;
30301;SDS011;17111;52.130;5.028;2023-02-28T02:27:17;10.00;;;6.30;;
30301;SDS011;17111;52.130;5.028;2023-02-28T02:36:13;10.13;;;6.40;;
30301;SDS011;17111;52.130;5.028;2023-02-28T02:38:53;10.15;;;6.20;;
30301;SDS011;17111;52.130;5.028;2023-02-28T02:41:33;9.75;;;5.85;;
30301;SDS011;17111;52.130;5.028;2023-02-28T02:44:18;8.68;;;5.10;;
30301;SDS011;17111;52.130;5.028;2023-02-28T02:47:20;9.03;;;5.90;;
30301;SDS011;17111;52.130;5.028;2023-02-28T02:49:51;8.85;;;5.90;;
30301;SDS011;17111;52.130;5.028;2023-02-28T02:52:23;8.63;;;5.47;;
30301;SDS011;17111;52.130;5.028;2023-02-28T02:54:55;8.57;;;5.43;;
30301;SDS011;17111;52.130;5.028;2023-02-28T02:57:29;7.55;;;4.97;;
30301;SDS011;17111;52.130;5.028;2023-02-28T03:00:09;8.93;;;5.60;;
30301;SDS011;17111;52.130;5.028;2023-02-28T03:02:36;9.27;;;5.57;;
30301;SDS011;17111;52.130;5.028;2023-02-28T03:05:06;7.10;;;4.88;;
30301;SDS011;17111;52.130;5.028;2023-02-28T03:07:40;7.22;;;4.45;;
30301;SDS011;17111;52.130;5.028;2023-02-28T03:18:51;8.93;;;5.03;;
30301;SDS011;17111;52.130;5.028;2023-02-28T03:26:47;7.15;;;4.75;;
30301;SDS011;17111;52.130;5.028;2023-02-28T03:29:49;7.20;;;4.50;;
30301;SDS011;17111;52.130;5.028;2023-02-28T03:32:27;7.20;;;4.43;;
30301;SDS011;17111;52.130;5.028;2023-02-28T03:37:36;7.30;;;4.38;;
30301;SDS011;17111;52.130;5.028;2023-02-28T03:40:13;5.95;;;4.05;;
30301;SDS011;17111;52.130;5.028;2023-02-28T03:42:46;6.65;;;4.55;;
30301;SDS011;17111;52.130;5.028;2023-02-28T03:45:19;7.00;;;4.45;;
30301;SDS011;17111;52.130;5.028;2023-02-28T03:47:54;7.32;;;4.32;;
30301;SDS011;17111;52.130;5.028;2023-02-28T03:50:34;6.88;;;3.97;;
30301;SDS011;17111;52.130;5.028;2023-02-28T03:53:06;6.85;;;4.20;;
30301;SDS011;17111;52.130;5.028;2023-02-28T03:55:40;7.65;;;3.95;;
30301;SDS011;17111;52.130;5.028;2023-02-28T03:58:13;6.10;;;4.05;;
30301;SDS011;17111;52.130;5.028;2023-02-28T04:00:49;6.50;;;3.53;;
30301;SDS011;17111;52.130;5.028;2023-02-28T04:03:21;6.32;;;4.20;;
30301;SDS011;17111;52.130;5.028;2023-02-28T04:05:49;6.88;;;3.97;;
30301;SDS011;17111;52.130;5.028;2023-02-28T04:08:18;6.57;;;3.83;;
30301;SDS011;17111;52.130;5.028;2023-02-28T04:10:47;6.95;;;4.03;;
30301;SDS011;17111;52.130;5.028;2023-02-28T04:13:20;6.38;;;4.05;;
30301;SDS011;17111;52.130;5.028;2023-02-28T04:15:46;6.93;;;3.75;;
30301;SDS011;17111;52.130;5.028;2023-02-28T04:18:13;5.40;;;3.72;;
30301;SDS011;17111;52.130;5.028;2023-02-28T04:20:39;5.55;;;3.78;;
30301;SDS011;17111;52.130;5.028;2023-02-28T04:23:06;6.25;;;3.40;;
30301;SDS011;17111;52.130;5.028;2023-02-28T04:25:33;5.03;;;2.97;;
30301;SDS011;17111;52.130;5.028;2023-02-28T04:27:59;5.68;;;3.28;;
30301;SDS011;17111;52.130;5.028;2023-02-28T04:30:26;6.07;;;3.17;;
30301;SDS011;17111;52.130;5.028;2023-02-28T04:32:52;4.07;;;2.78;;
30301;SDS011;17111;52.130;5.028;2023-02-28T04:35:19;6.10;;;3.53;;
30301;SDS011;17111;52.130;5.028;2023-02-28T04:37:45;5.75;;;3.47;;
30301;SDS011;17111;52.130;5.028;2023-02-28T04:40:12;5.03;;;3.20;;
30301;SDS011;17111;52.130;5.028;2023-02-28T04:42:39;4.80;;;3.17;;
30301;SDS011;17111;52.130;5.028;2023-02-28T04:45:05;5.97;;;3.22;;
30301;SDS011;17111;52.130;5.028;2023-02-28T04:47:32;4.78;;;3.05;;
30301;SDS011;17111;52.130;5.028;2023-02-28T04:49:59;4.78;;;3.17;;
30301;SDS011;17111;52.130;5.028;2023-02-28T04:52:27;5.70;;;2.90;;
30301;SDS011;17111;52.130;5.028;2023-02-28T04:54:53;4.32;;;2.90;;
30301;SDS011;17111;52.130;5.028;2023-02-28T04:57:20;4.20;;;2.67;;
30301;SDS011;17111;52.130;5.028;2023-02-28T04:59:47;5.47;;;3.05;;
30301;SDS011;17111;52.130;5.028;2023-02-28T05:02:13;4.53;;;2.92;;
30301;SDS011;17111;52.130;5.028;2023-02-28T05:04:40;3.72;;;2.65;;
30301;SDS011;17111;52.130;5.028;2023-02-28T05:07:07;4.50;;;2.90;;
30301;SDS011;17111;52.130;5.028;2023-02-28T05:09:33;5.13;;;2.95;;
30301;SDS011;17111;52.130;5.028;2023-02-28T05:12:00;4.10;;;2.45;;
30301;SDS011;17111;52.130;5.028;2023-02-28T05:14:27;5.30;;;3.00;;
30301;SDS011;17111;52.130;5.028;2023-02-28T05:16:53;4.93;;;3.13;;
30301;SDS011;17111;52.130;5.028;2023-02-28T05:19:20;4.10;;;2.83;;
30301;SDS011;17111;52.130;5.028;2023-02-28T05:21:49;4.50;;;2.63;;
30301;SDS011;17111;52.130;5.028;2023-02-28T05:24:18;5.82;;;2.83;;
30301;SDS011;17111;52.130;5.028;2023-02-28T05:26:51;3.30;;;2.28;;
30301;SDS011;17111;52.130;5.028;2023-02-28T05:29:19;5.40;;;2.65;;
30301;SDS011;17111;52.130;5.028;2023-02-28T05:31:46;4.43;;;2.45;;
30301;SDS011;17111;52.130;5.028;2023-02-28T05:34:13;5.82;;;2.85;;
30301;SDS011;17111;52.130;5.028;2023-02-28T05:36:41;4.38;;;2.53;;
30301;SDS011;17111;52.130;5.028;2023-02-28T05:39:08;3.65;;;2.40;;
30301;SDS011;17111;52.130;5.028;2023-02-28T05:41:40;4.22;;;2.53;;
30301;SDS011;17111;52.130;5.028;2023-02-28T05:44:07;5.95;;;2.40;;
30301;SDS011;17111;52.130;5.028;2023-02-28T05:46:34;4.15;;;2.65;;
30301;SDS011;17111;52.130;5.028;2023-02-28T05:49:01;4.15;;;2.35;;
30301;SDS011;17111;52.130;5.028;2023-02-28T05:51:28;4.97;;;2.88;;
30301;SDS011;17111;52.130;5.028;2023-02-28T05:53:58;3.55;;;2.20;;
30301;SDS011;17111;52.130;5.028;2023-02-28T05:56:25;4.65;;;3.17;;
30301;SDS011;17111;52.130;5.028;2023-02-28T05:58:52;3.58;;;2.20;;
30301;SDS011;17111;52.130;5.028;2023-02-28T06:01:26;3.45;;;2.63;;
30301;SDS011;17111;52.130;5.028;2023-02-28T06:03:59;3.40;;;2.05;;
30301;SDS011;17111;52.130;5.028;2023-02-28T06:06:26;4.05;;;2.33;;
30301;SDS011;17111;52.130;5.028;2023-02-28T06:08:53;4.75;;;2.75;;
30301;SDS011;17111;52.130;5.028;2023-02-28T06:11:20;3.65;;;2.03;;
30301;SDS011;17111;52.130;5.028;2023-02-28T06:13:46;2.47;;;1.90;;
30301;SDS011;17111;52.130;5.028;2023-02-28T06:16:13;4.45;;;2.40;;
30301;SDS011;17111;52.130;5.028;2023-02-28T06:18:40;4.18;;;2.13;;
30301;SDS011;17111;52.130;5.028;2023-02-28T06:21:06;3.10;;;1.90;;
30301;SDS011;17111;52.130;5.028;2023-02-28T06:23:34;4.05;;;2.05;;
30301;SDS011;17111;52.130;5.028;2023-02-28T06:26:01;4.55;;;2.25;;
30301;SDS011;17111;52.130;5.028;2023-02-28T06:28:28;3.55;;;2.30;;
30301;SDS011;17111;52.130;5.028;2023-02-28T06:30:54;4.53;;;2.40;;
30301;SDS011;17111;52.130;5.028;2023-02-28T06:33:21;3.92;;;2.15;;
30301;SDS011;17111;52.130;5.028;2023-02-28T06:35:50;3.85;;;1.83;;
30301;SDS011;17111;52.130;5.028;2023-02-28T06:38:17;4.75;;;2.10;;
30301;SDS011;17111;52.130;5.028;2023-02-28T06:40:44;4.30;;;2.40;;
30301;SDS011;17111;52.130;5.028;2023-02-28T06:43:18;2.65;;;1.77;;
30301;SDS011;17111;52.130;5.028;2023-02-28T06:45:45;5.40;;;2.38;;
30301;SDS011;17111;52.130;5.028;2023-02-28T06:48:11;2.97;;;1.80;;
30301;SDS011;17111;52.130;5.028;2023-02-28T06:50:38;3.05;;;1.73;;
30301;SDS011;17111;52.130;5.028;2023-02-28T06:53:05;4.57;;;2.25;;
30301;SDS011;17111;52.130;5.028;2023-02-28T06:55:31;3.33;;;1.90;;
30301;SDS011;17111;52.130;5.028;2023-02-28T06:57:58;5.07;;;2.03;;
30301;SDS011;17111;52.130;5.028;2023-02-28T07:00:24;2.95;;;1.80;;
30301;SDS011;17111;52.130;5.028;2023-02-28T07:02:51;2.88;;;1.98;;
30301;SDS011;17111;52.130;5.028;2023-02-28T07:05:20;2.97;;;2.05;;
30301;SDS011;17111;52.130;5.028;2023-02-28T07:07:46;4.15;;;2.35;;
30301;SDS011;17111;52.130;5.028;2023-02-28T07:10:13;3.97;;;2.03;;
30301;SDS011;17111;52.130;5.028;2023-02-28T07:12:45;4.03;;;1.85;;
30301;SDS011;17111;52.130;5.028;2023-02-28T07:15:12;2.80;;;2.00;;
30301;SDS011;17111;52.130;5.028;2023-02-28T07:17:38;4.38;;;2.30;;
30301;SDS011;17111;52.130;5.028;2023-02-28T07:20:05;2.92;;;2.05;;
30301;SDS011;17111;52.130;5.028;2023-02-28T07:22:32;3.42;;;2.08;;
30301;SDS011;17111;52.130;5.028;2023-02-28T07:24:58;2.30;;;1.60;;
30301;SDS011;17111;52.130;5.028;2023-02-28T07:27:25;4.07;;;2.10;;
30301;SDS011;17111;52.130;5.028;2023-02-28T07:29:52;4.03;;;2.38;;
30301;SDS011;17111;52.130;5.028;2023-02-28T07:32:19;4.00;;;2.05;;
30301;SDS011;17111;52.130;5.028;2023-02-28T07:34:45;5.40;;;2.25;;
30301;SDS011;17111;52.130;5.028;2023-02-28T07:37:12;3.25;;;2.53;;
30301;SDS011;17111;52.130;5.028;2023-02-28T07:39:39;2.75;;;1.70;;
30301;SDS011;17111;52.130;5.028;2023-02-28T07:42:08;3.42;;;2.08;;
30301;SDS011;17111;52.130;5.028;2023-02-28T07:44:37;2.90;;;1.98;;
30301;SDS011;17111;52.130;5.028;2023-02-28T07:47:07;3.15;;;2.38;;
30301;SDS011;17111;52.130;5.028;2023-02-28T07:49:35;3.60;;;1.88;;
30301;SDS011;17111;52.130;5.028;2023-02-28T07:52:05;3.47;;;2.03;;
30301;SDS011;17111;52.130;5.028;2023-02-28T07:54:33;3.88;;;1.75;;
30301;SDS011;17111;52.130;5.028;2023-02-28T07:56:59;3.95;;;2.20;;
30301;SDS011;17111;52.130;5.028;2023-02-28T07:59:26;2.95;;;2.00;;
30301;SDS011;17111;52.130;5.028;2023-02-28T08:01:53;2.78;;;2.05;;
30301;SDS011;17111;52.130;5.028;2023-02-28T08:04:20;3.60;;;2.15;;
30301;SDS011;17111;52.130;5.028;2023-02-28T08:06:46;3.53;;;2.00;;
30301;SDS011;17111;52.130;5.028;2023-02-28T08:09:13;3.40;;;2.05;;
30301;SDS011;17111;52.130;5.028;2023-02-28T08:11:41;2.33;;;1.77;;
30301;SDS011;17111;52.130;5.028;2023-02-28T08:14:07;3.17;;;2.08;;
30301;SDS011;17111;52.130;5.028;2023-02-28T08:16:34;2.83;;;1.70;;
30301;SDS011;17111;52.130;5.028;2023-02-28T08:19:00;4.35;;;2.03;;
30301;SDS011;17111;52.130;5.028;2023-02-28T08:21:27;1.92;;;1.55;;
30301;SDS011;17111;52.130;5.028;2023-02-28T08:23:54;2.50;;;1.50;;
30301;SDS011;17111;52.130;5.028;2023-02-28T08:26:22;3.55;;;1.80;;
30301;SDS011;17111;52.130;5.028;2023-02-28T08:28:49;2.65;;;1.83;;
30301;SDS011;17111;52.130;5.028;2023-02-28T08:31:16;3.08;;;2.00;;
30301;SDS011;17111;52.130;5.028;2023-02-28T08:33:43;2.88;;;1.92;;
30301;SDS011;17111;52.130;5.028;2023-02-28T08:36:11;3.13;;;1.90;;
30301;SDS011;17111;52.130;5.028;2023-02-28T08:38:37;3.42;;;1.90;;
30301;SDS011;17111;52.130;5.028;2023-02-28T08:41:06;2.25;;;1.50;;
30301;SDS011;17111;52.130;5.028;2023-02-28T08:43:35;2.60;;;1.83;;
30301;SDS011;17111;52.130;5.028;2023-02-28T08:46:02;2.30;;;1.50;;
30301;SDS011;17111;52.130;5.028;2023-02-28T08:48:30;4.88;;;2.35;;
30301;SDS011;17111;52.130;5.028;2023-02-28T08:51:06;1.95;;;1.40;;
30301;SDS011;17111;52.130;5.028;2023-02-28T08:53:35;3.33;;;1.60;;
30301;SDS011;17111;52.130;5.028;2023-02-28T08:56:04;1.85;;;1.60;;
30301;SDS011;17111;52.130;5.028;2023-02-28T08:58:33;2.65;;;1.70;;
30301;SDS011;17111;52.130;5.028;2023-02-28T09:01:00;2.20;;;1.60;;
30301;SDS011;17111;52.130;5.028;2023-02-28T09:03:37;2.58;;;1.63;;
30301;SDS011;17111;52.130;5.028;2023-02-28T09:06:04;2.92;;;1.50;;
30301;SDS011;17111;52.130;5.028;2023-02-28T09:08:31;2.13;;;1.50;;
30301;SDS011;17111;52.130;5.028;2023-02-28T09:10:57;3.03;;;1.98;;
30301;SDS011;17111;52.130;5.028;2023-02-28T09:13:27;4.10;;;1.98;;
30301;SDS011;17111;52.130;5.028;2023-02-28T09:15:53;2.60;;;1.50;;
30301;SDS011;17111;52.130;5.028;2023-02-28T09:18:20;2.58;;;1.50;;
30301;SDS011;17111;52.130;5.028;2023-02-28T09:20:47;2.95;;;1.88;;
30301;SDS011;17111;52.130;5.028;2023-02-28T09:23:13;2.88;;;1.60;;
30301;SDS011;17111;52.130;5.028;2023-02-28T09:25:50;2.00;;;1.55;;
30301;SDS011;17111;52.130;5.028;2023-02-28T09:28:19;2.53;;;1.65;;
30301;SDS011;17111;52.130;5.028;2023-02-28T09:30:48;4.25;;;2.40;;
30301;SDS011;17111;52.130;5.028;2023-02-28T09:33:17;5.50;;;2.85;;
30301;SDS011;17111;52.130;5.028;2023-02-28T09:35:47;5.75;;;2.42;;
30301;SDS011;17111;52.130;5.028;2023-02-28T09:38:15;6.13;;;2.63;;
30301;SDS011;17111;52.130;5.028;2023-02-28T09:40:47;3.97;;;2.17;;
30301;SDS011;17111;52.130;5.028;2023-02-28T09:43:20;3.33;;;2.40;;
30301;SDS011;17111;52.130;5.028;2023-02-28T09:45:54;4.25;;;2.40;;
30301;SDS011;17111;52.130;5.028;2023-02-28T09:48:27;3.10;;;2.13;;
30301;SDS011;17111;52.130;5.028;2023-02-28T09:51:05;4.75;;;2.53;;
30301;SDS011;17111;52.130;5.028;2023-02-28T09:53:58;5.10;;;2.30;;
30301;SDS011;17111;52.130;5.028;2023-02-28T09:56:29;4.85;;;2.30;;
30301;SDS011;17111;52.130;5.028;2023-02-28T09:59:49;4.97;;;2.30;;
30301;SDS011;17111;52.130;5.028;2023-02-28T10:07:50;4.82;;;2.20;;
30301;SDS011;17111;52.130;5.028;2023-02-28T10:10:45;5.85;;;2.00;;
30301;SDS011;17111;52.130;5.028;2023-02-28T10:15:58;3.80;;;2.10;;
30301;SDS011;17111;52.130;5.028;2023-02-28T10:18:30;3.50;;;1.90;;
30301;SDS011;17111;52.130;5.028;2023-02-28T10:21:04;3.67;;;2.20;;
30301;SDS011;17111;52.130;5.028;2023-02-28T10:23:34;3.65;;;2.03;;
30301;SDS011;17111;52.130;5.028;2023-02-28T10:26:08;5.57;;;2.55;;
30301;SDS011;17111;52.130;5.028;2023-02-28T10:28:39;6.47;;;2.72;;
30301;SDS011;17111;52.130;5.028;2023-02-28T10:31:06;4.97;;;2.17;;
30301;SDS011;17111;52.130;5.028;2023-02-28T10:33:38;2.67;;;1.60;;
30301;SDS011;17111;52.130;5.028;2023-02-28T10:36:05;3.15;;;1.80;;
30301;SDS011;17111;52.130;5.028;2023-02-28T10:38:34;4.30;;;2.30;;
30301;SDS011;17111;52.130;5.028;2023-02-28T10:41:09;2.72;;;1.80;;
30301;SDS011;17111;52.130;5.028;2023-02-28T10:43:38;4.78;;;1.90;;
30301;SDS011;17111;52.130;5.028;2023-02-28T10:48:42;3.72;;;1.83;;
30301;SDS011;17111;52.130;5.028;2023-02-28T10:56:26;5.22;;;1.83;;
30301;SDS011;17111;52.130;5.028;2023-02-28T10:58:57;4.50;;;1.98;;
30301;SDS011;17111;52.130;5.028;2023-02-28T11:03:56;3.38;;;1.88;;
30301;SDS011;17111;52.130;5.028;2023-02-28T11:06:26;2.42;;;1.40;;
30301;SDS011;17111;52.130;5.028;2023-02-28T11:09:12;2.47;;;1.63;;
30301;SDS011;17111;52.130;5.028;2023-02-28T11:14:49;4.43;;;2.10;;
30301;SDS011;17111;52.130;5.028;2023-02-28T11:19:49;2.88;;;2.03;;
30301;SDS011;17111;52.130;5.028;2023-02-28T11:22:20;2.85;;;1.75;;
30301;SDS011;17111;52.130;5.028;2023-02-28T11:24:59;5.55;;;1.92;;
30301;SDS011;17111;52.130;5.028;2023-02-28T11:29:58;2.45;;;1.25;;
30301;SDS011;17111;52.130;5.028;2023-02-28T11:32:26;2.95;;;1.50;;
30301;SDS011;17111;52.130;5.028;2023-02-28T11:35:14;4.63;;;2.10;;
30301;SDS011;17111;52.130;5.028;2023-02-28T11:37:48;5.88;;;1.70;;
30301;SDS011;17111;52.130;5.028;2023-02-28T11:40:15;4.00;;;1.80;;
30301;SDS011;17111;52.130;5.028;2023-02-28T11:42:56;2.42;;;1.48;;
30301;SDS011;17111;52.130;5.028;2023-02-28T11:45:52;3.63;;;1.55;;
30301;SDS011;17111;52.130;5.028;2023-02-28T11:51:59;2.80;;;1.23;;
30301;SDS011;17111;52.130;5.028;2023-02-28T11:57:14;1.77;;;1.30;;
30301;SDS011;17111;52.130;5.028;2023-02-28T12:00:00;2.10;;;1.40;;
30301;SDS011;17111;52.130;5.028;2023-02-28T12:02:57;2.70;;;1.17;;
30301;SDS011;17111;52.130;5.028;2023-02-28T12:11:02;1.90;;;1.20;;
30301;SDS011;17111;52.130;5.028;2023-02-28T12:13:35;2.25;;;1.50;;
30301;SDS011;17111;52.130;5.028;2023-02-28T12:16:35;2.65;;;1.23;;
30301;SDS011;17111;52.130;5.028;2023-02-28T12:19:19;2.10;;;1.42;;
30301;SDS011;17111;52.130;5.028;2023-02-28T12:27:44;3.47;;;1.20;;
30301;SDS011;17111;52.130;5.028;2023-02-28T12:30:15;3.60;;;1.33;;
30301;SDS011;17111;52.130;5.028;2023-02-28T12:32:48;1.65;;;1.20;;
30301;SDS011;17111;52.130;5.028;2023-02-28T12:35:23;1.88;;;1.10;;
30301;SDS011;17111;52.130;5.028;2023-02-28T12:37:57;2.30;;;1.48;;
30301;SDS011;17111;52.130;5.028;2023-02-28T12:41:13;2.63;;;1.40;;
30301;SDS011;17111;52.130;5.028;2023-02-28T12:43:20;2.10;;;1.13;;
30301;SDS011;17111;52.130;5.028;2023-02-28T12:45:52;1.17;;;0.90;;
30301;SDS011;17111;52.130;5.028;2023-02-28T12:48:24;2.10;;;0.98;;
30301;SDS011;17111;52.130;5.028;2023-02-28T12:50:55;1.30;;;0.80;;
30301;SDS011;17111;52.130;5.028;2023-02-28T12:56:16;2.03;;;1.20;;
30301;SDS011;17111;52.130;5.028;2023-02-28T12:58:55;2.00;;;1.40;;
30301;SDS011;17111;52.130;5.028;2023-02-28T13:01:36;1.02;;;0.90;;
30301;SDS011;17111;52.130;5.028;2023-02-28T13:04:56;0.90;;;0.77;;
30301;SDS011;17111;52.130;5.028;2023-02-28T13:10:19;2.22;;;1.25;;
30301;SDS011;17111;52.130;5.028;2023-02-28T13:12:53;2.03;;;1.30;;
30301;SDS011;17111;52.130;5.028;2023-02-28T13:15:22;2.20;;;1.20;;
30301;SDS011;17111;52.130;5.028;2023-02-28T13:17:52;1.38;;;0.82;;
30301;SDS011;17111;52.130;5.028;2023-02-28T13:20:25;1.05;;;0.80;;
30301;SDS011;17111;52.130;5.028;2023-02-28T13:22:54;1.45;;;1.00;;
30301;SDS011;17111;52.130;5.028;2023-02-28T13:27:51;1.58;;;1.08;;
30301;SDS011;17111;52.130;5.028;2023-02-28T13:38:48;3.10;;;1.00;;
30301;SDS011;17111;52.130;5.028;2023-02-28T13:49:33;1.33;;;0.80;;
30301;SDS011;17111;52.130;5.028;2023-02-28T14:00:42;1.35;;;0.95;;
30301;SDS011;17111;52.130;5.028;2023-02-28T14:11:52;2.75;;;0.90;;
30301;SDS011;17111;52.130;5.028;2023-02-28T14:14:53;1.55;;;0.88;;
30301;SDS011;17111;52.130;5.028;2023-02-28T14:17:15;1.60;;;0.98;;
30301;SDS011;17111;52.130;5.028;2023-02-28T14:19:43;2.63;;;1.08;;
30301;SDS011;17111;52.130;5.028;2023-02-28T14:22:36;2.72;;;0.73;;
30301;SDS011;17111;52.130;5.028;2023-02-28T14:25:09;1.52;;;0.70;;
30301;SDS011;17111;52.130;5.028;2023-02-28T14:28:04;0.88;;;0.82;;
30301;SDS011;17111;52.130;5.028;2023-02-28T14:30:51;3.35;;;1.20;;
30301;SDS011;17111;52.130;5.028;2023-02-28T14:36:27;2.05;;;0.82;;
30301;SDS011;17111;52.130;5.028;2023-02-28T14:39:00;0.88;;;0.70;;
30301;SDS011;17111;52.130;5.028;2023-02-28T14:44:21;1.38;;;0.85;;
30301;SDS011;17111;52.130;5.028;2023-02-28T14:46:59;1.55;;;0.90;;
30301;SDS011;17111;52.130;5.028;2023-02-28T14:55:17;1.48;;;0.90;;
30301;SDS011;17111;52.130;5.028;2023-02-28T14:57:53;1.40;;;0.90;;
30301;SDS011;17111;52.130;5.028;2023-02-28T15:00:31;1.52;;;0.80;;
30301;SDS011;17111;52.130;5.028;2023-02-28T15:03:11;1.05;;;0.80;;
30301;SDS011;17111;52.130;5.028;2023-02-28T15:05:52;1.25;;;0.75;;
30301;SDS011;17111;52.130;5.028;2023-02-28T15:08:23;0.75;;;0.60;;
30301;SDS011;17111;52.130;5.028;2023-02-28T15:10:53;0.85;;;0.60;;
30301;SDS011;17111;52.130;5.028;2023-02-28T15:13:26;1.07;;;0.80;;
30301;SDS011;17111;52.130;5.028;2023-02-28T15:16:06;1.85;;;0.80;;
30301;SDS011;17111;52.130;5.028;2023-02-28T15:21:06;1.25;;;0.88;;
30301;SDS011;17111;52.130;5.028;2023-02-28T15:23:38;0.80;;;0.73;;
30301;SDS011;17111;52.130;5.028;2023-02-28T15:26:10;0.98;;;0.90;;
30301;SDS011;17111;52.130;5.028;2023-02-28T15:31:29;1.38;;;0.73;;
30301;SDS011;17111;52.130;5.028;2023-02-28T15:34:18;1.08;;;0.90;;
30301;SDS011;17111;52.130;5.028;2023-02-28T15:36:49;1.10;;;0.98;;
30301;SDS011;17111;52.130;5.028;2023-02-28T15:39:18;1.70;;;0.90;;
30301;SDS011;17111;52.130;5.028;2023-02-28T15:41:46;1.73;;;0.73;;
30301;SDS011;17111;52.130;5.028;2023-02-28T15:44:17;1.75;;;0.80;;
30301;SDS011;17111;52.130;5.028;2023-02-28T15:49:35;1.05;;;0.75;;
30301;SDS011;17111;52.130;5.028;2023-02-28T15:52:12;2.95;;;0.90;;
30301;SDS011;17111;52.130;5.028;2023-02-28T15:54:43;1.38;;;1.00;;
30301;SDS011;17111;52.130;5.028;2023-02-28T15:57:18;0.70;;;0.70;;
30301;SDS011;17111;52.130;5.028;2023-02-28T15:59:52;1.60;;;0.75;;
30301;SDS011;17111;52.130;5.028;2023-02-28T16:02:22;2.17;;;0.90;;
30301;SDS011;17111;52.130;5.028;2023-02-28T16:07:36;1.48;;;0.90;;
30301;SDS011;17111;52.130;5.028;2023-02-28T16:10:08;1.48;;;0.77;;
30301;SDS011;17111;52.130;5.028;2023-02-28T16:12:37;1.27;;;0.90;;
30301;SDS011;17111;52.130;5.028;2023-02-28T16:15:20;1.73;;;0.90;;
30301;SDS011;17111;52.130;5.028;2023-02-28T16:17:50;1.00;;;0.70;;
30301;SDS011;17111;52.130;5.028;2023-02-28T16:20:35;1.88;;;0.98;;
30301;SDS011;17111;52.130;5.028;2023-02-28T16:23:01;2.78;;;0.98;;
30301;SDS011;17111;52.130;5.028;2023-02-28T16:25:33;1.38;;;0.82;;
30301;SDS011;17111;52.130;5.028;2023-02-28T16:28:22;2.45;;;0.85;;
30301;SDS011;17111;52.130;5.028;2023-02-28T16:30:57;1.13;;;0.70;;
30301;SDS011;17111;52.130;5.028;2023-02-28T16:33:25;1.58;;;1.00;;
30301;SDS011;17111;52.130;5.028;2023-02-28T16:35:52;1.70;;;0.88;;
30301;SDS011;17111;52.130;5.028;2023-02-28T16:38:19;1.88;;;0.88;;
30301;SDS011;17111;52.130;5.028;2023-02-28T16:40:45;2.22;;;0.90;;
30301;SDS011;17111;52.130;5.028;2023-02-28T16:43:16;1.77;;;1.05;;
30301;SDS011;17111;52.130;5.028;2023-02-28T16:45:45;2.92;;;1.20;;
30301;SDS011;17111;52.130;5.028;2023-02-28T16:48:13;1.73;;;1.13;;
30301;SDS011;17111;52.130;5.028;2023-02-28T16:50:42;3.72;;;1.70;;
30301;SDS011;17111;52.130;5.028;2023-02-28T16:53:10;2.47;;;1.50;;
30301;SDS011;17111;52.130;5.028;2023-02-28T16:55:37;3.25;;;1.70;;
30301;SDS011;17111;52.130;5.028;2023-02-28T16:58:04;4.32;;;1.85;;
30301;SDS011;17111;52.130;5.028;2023-02-28T17:00:31;5.28;;;2.10;;
30301;SDS011;17111;52.130;5.028;2023-02-28T17:02:58;7.07;;;2.65;;
30301;SDS011;17111;52.130;5.028;2023-02-28T17:05:26;3.88;;;2.45;;
30301;SDS011;17111;52.130;5.028;2023-02-28T17:07:56;6.85;;;2.80;;
30301;SDS011;17111;52.130;5.028;2023-02-28T17:10:24;5.20;;;2.88;;
30301;SDS011;17111;52.130;5.028;2023-02-28T17:12:54;5.05;;;2.75;;
30301;SDS011;17111;52.130;5.028;2023-02-28T17:15:34;7.45;;;3.92;;
30301;SDS011;17111;52.130;5.028;2023-02-28T17:18:03;10.27;;;4.40;;
30301;SDS011;17111;52.130;5.028;2023-02-28T17:20:31;8.85;;;4.90;;
30301;SDS011;17111;52.130;5.028;2023-02-28T17:22:57;9.13;;;4.72;;
30301;SDS011;17111;52.130;5.028;2023-02-28T17:25:24;10.15;;;5.38;;
30301;SDS011;17111;52.130;5.028;2023-02-28T17:27:51;10.52;;;5.05;;
30301;SDS011;17111;52.130;5.028;2023-02-28T17:30:18;12.55;;;5.68;;